Time;durP1;ratioP1;P1;durP2;ratioP2;P2;SDS_P1;SDS_P2;PMS_P1;PMS_P2;Temp;Humidity;BMP_temperature;BMP_pressure;BME280_temperature;BME280_humidity;BME280_pressure;Samples;Min_cycle;Max_cycle;Signal;HPM_P1;HPM_P2
2022/11/01 00:02:16;;;;;;;72.95;35.97;;;;;;;;;;5076629;28;20515;-75
2022/11/01 00:04:42;;;;;;;73.75;34.95;;;;;;;;;;5076505;28;20032;-75
2022/11/01 00:07:08;;;;;;;69.53;34.17;;;;;;;;;;5076556;28;20108;-74
2022/11/01 00:09:34;;;;;;;71.68;33.22;;;;;;;;;;5076390;28;20074;-74
2022/11/01 00:12:00;;;;;;;69.28;33.58;;;;;;;;;;5086278;28;20389;-72
2022/11/01 00:14:26;;;;;;;71.88;35.65;;;;;;;;;;5097524;28;20036;-73
2022/11/01 00:16:52;;;;;;;70.75;34.40;;;;;;;;;;5095383;28;20024;-73
2022/11/01 00:19:18;;;;;;;67.72;33.35;;;;;;;;;;5095160;28;20028;-73
2022/11/01 00:21:44;;;;;;;71.95;35.40;;;;;;;;;;5096924;28;20025;-74
2022/11/01 00:24:10;;;;;;;67.80;35.28;;;;;;;;;;5081644;28;20039;-72
2022/11/01 00:26:36;;;;;;;71.78;34.85;;;;;;;;;;5076586;28;20024;-76
2022/11/01 00:29:02;;;;;;;70.78;35.38;;;;;;;;;;5077232;28;20028;-75
2022/11/01 00:31:28;;;;;;;72.15;34.90;;;;;;;;;;5077088;28;20054;-73
2022/11/01 00:33:54;;;;;;;73.93;35.65;;;;;;;;;;5083526;28;20064;-74
2022/11/01 00:36:20;;;;;;;71.18;35.80;;;;;;;;;;5080731;28;20029;-73
2022/11/01 00:38:50;;;;;;;65.80;34.08;;;;;;;;;;5082025;28;20081;-73
2022/11/01 00:41:18;;;;;;;74.78;35.97;;;;;;;;;;5080393;28;20411;-74
2022/11/01 00:43:44;;;;;;;77.82;38.38;;;;;;;;;;5073802;28;20021;-75
2022/11/01 00:46:10;;;;;;;84.88;38.90;;;;;;;;;;5075052;28;20139;-75
2022/11/01 00:48:36;;;;;;;82.10;38.50;;;;;;;;;;5075775;28;20096;-76
2022/11/01 00:51:02;;;;;;;77.95;37.08;;;;;;;;;;5076073;28;20048;-75
2022/11/01 00:53:28;;;;;;;87.85;40.80;;;;;;;;;;5077906;28;20020;-75
2022/11/01 00:55:58;;;;;;;79.45;39.13;;;;;;;;;;5076959;28;20103;-75
2022/11/01 00:58:24;;;;;;;76.53;38.90;;;;;;;;;;5079004;28;20031;-74
2022/11/01 01:00:50;;;;;;;86.95;40.95;;;;;;;;;;5077045;28;20132;-76
2022/11/01 01:03:16;;;;;;;83.70;40.70;;;;;;;;;;5078571;28;20060;-73
2022/11/01 01:05:42;;;;;;;78.15;40.65;;;;;;;;;;5077827;28;20028;-75
2022/11/01 01:08:08;;;;;;;77.20;39.70;;;;;;;;;;5078119;28;20032;-75
2022/11/01 01:10:35;;;;;;;98.60;40.38;;;;;;;;;;5077708;28;20025;-75
2022/11/01 01:13:00;;;;;;;83.05;42.03;;;;;;;;;;5076071;28;20141;-74
2022/11/01 01:15:26;;;;;;;81.40;40.55;;;;;;;;;;5074278;28;20484;-76
2022/11/01 01:17:53;;;;;;;84.15;41.00;;;;;;;;;;5074666;28;20358;-75
2022/11/01 01:20:19;;;;;;;80.32;39.75;;;;;;;;;;5075311;28;20078;-71
2022/11/01 01:22:45;;;;;;;77.90;40.45;;;;;;;;;;5074745;28;20032;-73
2022/11/01 01:25:11;;;;;;;76.35;39.47;;;;;;;;;;5074209;28;20028;-73
2022/11/01 01:27:37;;;;;;;87.78;43.08;;;;;;;;;;5074150;28;20401;-72
2022/11/01 01:30:06;;;;;;;78.50;40.47;;;;;;;;;;5074257;28;20083;-73
2022/11/01 01:32:32;;;;;;;80.68;39.10;;;;;;;;;;5074378;28;20017;-72
2022/11/01 01:34:58;;;;;;;83.75;40.30;;;;;;;;;;5074520;28;20027;-72
2022/11/01 01:37:24;;;;;;;87.35;41.08;;;;;;;;;;5074054;28;20103;-73
2022/11/01 01:39:50;;;;;;;82.80;41.45;;;;;;;;;;5074266;28;20079;-74
2022/11/01 01:42:29;;;;;;;78.63;40.35;;;;;;;;;;5073116;28;20032;-72
2022/11/01 01:44:55;;;;;;;88.80;42.92;;;;;;;;;;5073866;28;20462;-72
2022/11/01 01:47:23;;;;;;;79.60;40.50;;;;;;;;;;5075304;28;20310;-72
2022/11/01 01:50:19;;;;;;;88.78;42.45;;;;;;;;;;5081181;28;20056;-73
2022/11/01 01:52:45;;;;;;;;;;;;;;;;;;5064651;28;20044;-73
2022/11/01 01:55:13;;;;;;;77.50;39.08;;;;;;;;;;5075174;28;19913;-73
2022/11/01 01:57:40;;;;;;;87.47;40.95;;;;;;;;;;5074054;28;20074;-71
2022/11/01 02:00:06;;;;;;;87.65;41.67;;;;;;;;;;5074203;28;20373;-74
2022/11/01 02:02:32;;;;;;;87.07;43.40;;;;;;;;;;5074181;28;20056;-73
2022/11/01 02:05:01;;;;;;;86.72;42.88;;;;;;;;;;5074302;28;20033;-71
2022/11/01 02:07:27;;;;;;;90.68;40.90;;;;;;;;;;5074593;28;20031;-73
2022/11/01 02:09:54;;;;;;;87.75;42.33;;;;;;;;;;5075591;28;20021;-73
2022/11/01 02:12:22;;;;;;;89.40;43.95;;;;;;;;;;5088609;28;20053;-73
2022/11/01 02:14:48;;;;;;;95.63;44.45;;;;;;;;;;5087564;28;20048;-71
2022/11/01 02:17:28;;;;;;;94.47;45.75;;;;;;;;;;5089003;28;20687;-71
2022/11/01 02:20:09;;;;;;;90.63;43.90;;;;;;;;;;5087754;28;20032;-72
2022/11/01 02:22:55;;;;;;;93.00;44.05;;;;;;;;;;5085282;28;20036;-73
2022/11/01 02:25:21;;;;;;;92.72;45.75;;;;;;;;;;5086294;28;20097;-73
2022/11/01 02:27:51;;;;;;;111.95;47.58;;;;;;;;;;5088784;28;20024;-72
2022/11/01 02:30:18;;;;;;;94.72;47.95;;;;;;;;;;5087961;28;20020;-74
2022/11/01 02:32:51;;;;;;;96.20;46.10;;;;;;;;;;5091337;28;20012;-72
2022/11/01 02:35:32;;;;;;;107.03;49.45;;;;;;;;;;5093102;28;20028;-73
2022/11/01 02:38:06;;;;;;;103.28;48.88;;;;;;;;;;5088102;28;20111;-72
2022/11/01 02:40:44;;;;;;;103.15;49.13;;;;;;;;;;5083410;28;20023;-72
2022/11/01 02:43:18;;;;;;;114.20;51.97;;;;;;;;;;5094814;28;20038;-73
2022/11/01 02:45:48;;;;;;;101.50;50.00;;;;;;;;;;5082957;28;20035;-72
2022/11/01 02:48:14;;;;;;;107.20;51.97;;;;;;;;;;5078476;28;20074;-73
2022/11/01 02:50:41;;;;;;;118.53;53.38;;;;;;;;;;5073321;28;20033;-74
2022/11/01 02:53:07;;;;;;;117.40;53.75;;;;;;;;;;5072803;28;20048;-73
2022/11/01 02:55:34;;;;;;;121.80;52.65;;;;;;;;;;5072706;28;20480;-73
2022/11/01 02:58:03;;;;;;;118.70;55.47;;;;;;;;;;5073290;28;20023;-73
2022/11/01 03:00:33;;;;;;;119.47;54.95;;;;;;;;;;5073249;28;20029;-73
2022/11/01 03:03:20;;;;;;;123.15;55.10;;;;;;;;;;5072926;28;20059;-74
2022/11/01 03:05:57;;;;;;;134.98;56.55;;;;;;;;;;5071367;28;20496;-73
2022/11/01 03:08:25;;;;;;;122.05;56.33;;;;;;;;;;5072625;28;20017;-73
2022/11/01 03:10:54;;;;;;;130.40;56.08;;;;;;;;;;5072513;28;20029;-72
2022/11/01 03:13:28;;;;;;;133.30;56.88;;;;;;;;;;5072442;28;20024;-74
2022/11/01 03:15:57;;;;;;;127.72;57.30;;;;;;;;;;5072134;28;20032;-72
2022/11/01 03:18:31;;;;;;;130.02;57.35;;;;;;;;;;5072239;28;20035;-73
2022/11/01 03:21:00;;;;;;;127.93;57.65;;;;;;;;;;5072636;28;20037;-72
2022/11/01 03:23:32;;;;;;;133.73;56.83;;;;;;;;;;5072886;28;20035;-73
2022/11/01 03:26:00;;;;;;;124.60;57.45;;;;;;;;;;5072856;28;20024;-72
2022/11/01 03:28:38;;;;;;;129.20;58.00;;;;;;;;;;5073383;28;20362;-72
2022/11/01 03:31:12;;;;;;;125.22;56.17;;;;;;;;;;5074188;28;20048;-73
2022/11/01 03:33:40;;;;;;;132.52;60.42;;;;;;;;;;5078595;28;20031;-71
2022/11/01 03:36:09;;;;;;;138.85;59.65;;;;;;;;;;5072655;28;20029;-71
2022/11/01 03:38:36;;;;;;;136.00;59.38;;;;;;;;;;5072620;28;20054;-72
2022/11/01 03:41:04;;;;;;;127.43;59.40;;;;;;;;;;5073127;28;20028;-73
2022/11/01 03:43:30;;;;;;;129.95;57.35;;;;;;;;;;5073161;28;20056;-72
2022/11/01 03:45:56;;;;;;;123.47;58.30;;;;;;;;;;5072578;28;20035;-73
2022/11/01 03:48:22;;;;;;;124.18;58.42;;;;;;;;;;5073333;28;20024;-71
2022/11/01 03:50:49;;;;;;;135.75;58.88;;;;;;;;;;5072459;28;20064;-71
2022/11/01 03:53:15;;;;;;;126.10;58.65;;;;;;;;;;5073249;28;20381;-72
2022/11/01 03:55:42;;;;;;;122.75;56.80;;;;;;;;;;5072783;28;20466;-73
2022/11/01 03:58:08;;;;;;;122.65;56.25;;;;;;;;;;5072746;28;20033;-73
2022/11/01 04:00:36;;;;;;;119.63;56.42;;;;;;;;;;5072917;28;20379;-73
2022/11/01 04:03:02;;;;;;;114.82;57.33;;;;;;;;;;5072020;28;20025;-73
2022/11/01 04:05:28;;;;;;;130.02;57.35;;;;;;;;;;5072920;28;20369;-72
2022/11/01 04:07:55;;;;;;;130.70;60.25;;;;;;;;;;5076423;28;20029;-73
2022/11/01 04:10:21;;;;;;;127.05;56.80;;;;;;;;;;5074704;28;20050;-72
2022/11/01 04:12:48;;;;;;;124.32;57.30;;;;;;;;;;5075557;28;20098;-72
2022/11/01 04:20:55;;;;;;;122.25;55.47;;;;;;;;;;5081596;28;20097;-73
2022/11/01 04:23:21;;;;;;;118.93;56.05;;;;;;;;;;5083379;28;20039;-74
2022/11/01 04:25:47;;;;;;;121.72;56.67;;;;;;;;;;5075115;28;20107;-72
2022/11/01 04:28:14;;;;;;;126.80;56.70;;;;;;;;;;5075480;28;20028;-70
2022/11/01 04:30:40;;;;;;;116.63;56.28;;;;;;;;;;5075048;28;20484;-72
2022/11/01 04:33:06;;;;;;;123.18;57.03;;;;;;;;;;5075134;28;20074;-73
2022/11/01 04:35:32;;;;;;;127.75;57.70;;;;;;;;;;5075144;28;20032;-72
2022/11/01 04:37:58;;;;;;;134.02;58.97;;;;;;;;;;5073993;28;20127;-74
2022/11/01 04:40:25;;;;;;;117.90;54.17;;;;;;;;;;5075028;28;20057;-71
2022/11/01 04:42:54;;;;;;;117.55;57.78;;;;;;;;;;5076687;28;20021;-73
2022/11/01 04:45:20;;;;;;;122.15;56.50;;;;;;;;;;5075196;28;20445;-73
2022/11/01 04:47:52;;;;;;;124.75;56.50;;;;;;;;;;5075082;28;20048;-72
2022/11/01 04:50:19;;;;;;;125.18;56.80;;;;;;;;;;5076234;28;20052;-72
2022/11/01 04:52:45;;;;;;;128.70;57.25;;;;;;;;;;5075527;28;20473;-74
2022/11/01 04:55:11;;;;;;;119.07;56.60;;;;;;;;;;5075210;28;20477;-72
2022/11/01 04:57:40;;;;;;;129.55;56.95;;;;;;;;;;5081126;28;20162;-73
2022/11/01 05:00:07;;;;;;;130.43;56.33;;;;;;;;;;5079578;28;20102;-72
2022/11/01 05:02:33;;;;;;;131.43;58.40;;;;;;;;;;5076176;28;20036;-73
2022/11/01 05:04:59;;;;;;;125.50;58.55;;;;;;;;;;5074698;28;20027;-71
2022/11/01 05:07:25;;;;;;;134.95;56.78;;;;;;;;;;5074502;28;20112;-73
2022/11/01 05:09:50;;;;;;;126.80;58.95;;;;;;;;;;5074874;28;20079;-73
2022/11/01 05:12:18;;;;;;;127.78;58.30;;;;;;;;;;5074841;28;20085;-72
2022/11/01 05:14:43;;;;;;;122.90;56.08;;;;;;;;;;5074978;28;20031;-72
2022/11/01 05:17:10;;;;;;;119.53;56.10;;;;;;;;;;5074738;28;20029;-72
2022/11/01 05:19:36;;;;;;;125.30;58.28;;;;;;;;;;5074888;28;20542;-72
2022/11/01 05:22:03;;;;;;;114.13;55.50;;;;;;;;;;5074852;28;20107;-73
2022/11/01 05:24:29;;;;;;;121.18;55.90;;;;;;;;;;5074698;28;20024;-73
2022/11/01 05:26:55;;;;;;;120.75;57.38;;;;;;;;;;5074043;28;20422;-72
2022/11/01 05:29:21;;;;;;;115.68;54.35;;;;;;;;;;5074556;28;20024;-72
2022/11/01 05:31:46;;;;;;;125.78;56.00;;;;;;;;;;5074365;28;20023;-74
2022/11/01 05:34:12;;;;;;;116.45;56.08;;;;;;;;;;5075507;28;20067;-71
2022/11/01 05:36:38;;;;;;;120.18;55.70;;;;;;;;;;5074111;28;20035;-73
2022/11/01 05:39:04;;;;;;;116.95;54.20;;;;;;;;;;5074322;28;20024;-72
2022/11/01 05:41:30;;;;;;;116.10;55.35;;;;;;;;;;5074423;28;20046;-73
2022/11/01 05:43:56;;;;;;;116.50;53.88;;;;;;;;;;5072757;28;20032;-72
2022/11/01 05:46:22;;;;;;;115.32;55.53;;;;;;;;;;5073910;28;20039;-73
2022/11/01 05:48:48;;;;;;;109.55;54.53;;;;;;;;;;5074427;28;20029;-74
2022/11/01 05:51:14;;;;;;;117.18;53.20;;;;;;;;;;5075381;28;20445;-73
2022/11/01 05:53:40;;;;;;;115.65;52.83;;;;;;;;;;5074565;28;20389;-74
2022/11/01 05:56:06;;;;;;;110.40;52.20;;;;;;;;;;5074741;28;20389;-72
2022/11/01 05:58:32;;;;;;;100.22;50.85;;;;;;;;;;5074421;28;20107;-72
2022/11/01 06:00:58;;;;;;;119.97;52.70;;;;;;;;;;5074689;28;20025;-74
2022/11/01 06:03:24;;;;;;;109.55;50.67;;;;;;;;;;5074488;28;20481;-71
2022/11/01 06:05:50;;;;;;;110.90;50.65;;;;;;;;;;5074173;28;20028;-71
2022/11/01 06:08:17;;;;;;;108.65;49.95;;;;;;;;;;5074340;28;20031;-74
2022/11/01 06:10:43;;;;;;;101.45;51.10;;;;;;;;;;5075192;28;20025;-73
2022/11/01 06:13:09;;;;;;;110.80;50.58;;;;;;;;;;5074633;28;20066;-74
2022/11/01 06:15:35;;;;;;;104.43;49.05;;;;;;;;;;5075052;28;20107;-74
2022/11/01 06:18:01;;;;;;;102.03;48.35;;;;;;;;;;5074823;28;20036;-74
2022/11/01 06:20:31;;;;;;;108.95;48.17;;;;;;;;;;5074986;28;20076;-73
2022/11/01 06:22:57;;;;;;;96.85;47.00;;;;;;;;;;5074141;28;20032;-73
2022/11/01 06:25:24;;;;;;;95.55;47.10;;;;;;;;;;5073882;28;20029;-73
2022/11/01 06:27:50;;;;;;;106.32;48.33;;;;;;;;;;5072192;28;20025;-72
2022/11/01 06:30:16;;;;;;;110.05;47.50;;;;;;;;;;5073628;28;20028;-72
2022/11/01 06:32:42;;;;;;;95.57;46.55;;;;;;;;;;5073911;28;20146;-73
2022/11/01 06:35:08;;;;;;;104.97;48.72;;;;;;;;;;5073825;28;20025;-72
2022/11/01 06:37:34;;;;;;;94.60;47.60;;;;;;;;;;5073301;28;20027;-73
2022/11/01 06:40:00;;;;;;;102.85;47.58;;;;;;;;;;5073576;28;20021;-72
2022/11/01 06:42:26;;;;;;;102.88;48.78;;;;;;;;;;5074107;28;20048;-72
2022/11/01 06:44:52;;;;;;;94.72;47.90;;;;;;;;;;5073341;28;20036;-74
2022/11/01 06:47:18;;;;;;;98.28;46.95;;;;;;;;;;5081879;28;20028;-74
2022/11/01 06:49:43;;;;;;;99.90;48.20;;;;;;;;;;5084061;28;20020;-74
2022/11/01 06:52:09;;;;;;;97.22;47.63;;;;;;;;;;5082105;28;20024;-73
2022/11/01 06:54:36;;;;;;;96.10;48.13;;;;;;;;;;5080373;28;20024;-75
2022/11/01 06:57:01;;;;;;;94.30;46.13;;;;;;;;;;5077823;28;20026;-73
2022/11/01 06:59:27;;;;;;;92.25;46.10;;;;;;;;;;5072680;28;20025;-73
2022/11/01 07:01:54;;;;;;;98.40;46.83;;;;;;;;;;5073398;28;20025;-73
2022/11/01 07:04:20;;;;;;;94.22;46.88;;;;;;;;;;5080861;28;20528;-72
2022/11/01 07:06:46;;;;;;;99.57;47.65;;;;;;;;;;5079227;28;20150;-74
2022/11/01 07:09:12;;;;;;;95.30;46.00;;;;;;;;;;5073650;28;20020;-73
2022/11/01 07:11:38;;;;;;;96.45;45.67;;;;;;;;;;5073175;28;20051;-72
2022/11/01 07:14:05;;;;;;;101.65;46.33;;;;;;;;;;5072683;28;20381;-74
2022/11/01 07:16:31;;;;;;;99.38;46.90;;;;;;;;;;5072650;28;20029;-72
2022/11/01 07:21:26;;;;;;;88.07;45.95;;;;;;;;;;5037516;28;20115;-78
2022/11/01 07:23:53;;;;;;;88.70;43.58;;;;;;;;;;5038971;28;20025;-77
2022/11/01 07:26:19;;;;;;;87.38;45.45;;;;;;;;;;5021132;28;20382;-77
2022/11/01 07:28:45;;;;;;;89.13;43.47;;;;;;;;;;5035926;28;20049;-77
2022/11/01 07:31:11;;;;;;;90.85;43.63;;;;;;;;;;5035380;28;20096;-76
2022/11/01 07:33:37;;;;;;;85.47;42.58;;;;;;;;;;5035032;28;20390;-78
2022/11/01 07:36:04;;;;;;;87.40;41.90;;;;;;;;;;5035726;28;20411;-76
2022/11/01 07:38:30;;;;;;;88.57;40.85;;;;;;;;;;5040809;28;20026;-77
2022/11/01 07:40:56;;;;;;;84.38;40.60;;;;;;;;;;5047369;28;20033;-76
2022/11/01 07:43:22;;;;;;;76.00;38.00;;;;;;;;;;5050230;28;20028;-76
2022/11/01 07:45:48;;;;;;;87.57;38.17;;;;;;;;;;5044741;28;20021;-77
2022/11/01 07:48:15;;;;;;;76.75;35.05;;;;;;;;;;5044549;28;20017;-77
2022/11/01 07:50:42;;;;;;;72.50;35.90;;;;;;;;;;5047899;28;20018;-77
2022/11/01 07:53:15;;;;;;;81.03;37.70;;;;;;;;;;5027267;28;20091;-78
2022/11/01 07:55:42;;;;;;;73.18;38.92;;;;;;;;;;5040258;28;20525;-77
2022/11/01 07:58:08;;;;;;;72.90;36.80;;;;;;;;;;5040685;28;20033;-78
2022/11/01 08:00:35;;;;;;;72.05;34.78;;;;;;;;;;5040931;28;20095;-78
2022/11/01 08:03:08;;;;;;;69.15;32.75;;;;;;;;;;5041088;28;20064;-77
2022/11/01 08:05:34;;;;;;;69.82;31.67;;;;;;;;;;5038206;28;20544;-77
2022/11/01 08:08:00;;;;;;;70.90;30.63;;;;;;;;;;5038407;28;20033;-78
2022/11/01 08:10:27;;;;;;;62.22;28.20;;;;;;;;;;5038113;28;20074;-78
2022/11/01 08:12:59;;;;;;;59.38;29.35;;;;;;;;;;5038449;28;20029;-77
2022/11/01 08:15:25;;;;;;;61.28;31.13;;;;;;;;;;5038046;28;20033;-76
2022/11/01 08:17:51;;;;;;;68.95;30.90;;;;;;;;;;5037468;28;20041;-80
2022/11/01 08:20:17;;;;;;;54.40;28.90;;;;;;;;;;5039531;28;20092;-77
2022/11/01 08:22:43;;;;;;;63.08;28.75;;;;;;;;;;5023378;28;20097;-78
2022/11/01 08:25:09;;;;;;;63.95;29.98;;;;;;;;;;5054034;28;20033;-77
2022/11/01 08:27:35;;;;;;;62.78;28.73;;;;;;;;;;5050543;28;20038;-78
2022/11/01 08:30:01;;;;;;;53.92;26.67;;;;;;;;;;5037294;28;20264;-77
2022/11/01 08:32:27;;;;;;;56.35;28.42;;;;;;;;;;5037612;28;20026;-76
2022/11/01 08:34:53;;;;;;;56.58;28.38;;;;;;;;;;5019478;28;20025;-77
2022/11/01 08:37:19;;;;;;;60.53;27.92;;;;;;;;;;5039730;28;20027;-79
2022/11/01 08:39:45;;;;;;;50.33;26.60;;;;;;;;;;5037785;28;20029;-77
2022/11/01 08:42:11;;;;;;;57.30;27.75;;;;;;;;;;5038143;28;20056;-78
2022/11/01 08:44:37;;;;;;;47.88;24.33;;;;;;;;;;5036830;28;20465;-77
2022/11/01 08:47:03;;;;;;;53.55;26.00;;;;;;;;;;5038254;28;20041;-76
2022/11/01 08:49:29;;;;;;;59.83;26.60;;;;;;;;;;5038119;28;20032;-76
2022/11/01 08:51:55;;;;;;;61.42;25.92;;;;;;;;;;5039379;28;20055;-78
2022/11/01 08:54:21;;;;;;;48.30;24.08;;;;;;;;;;5040499;28;20033;-76
2022/11/01 08:56:47;;;;;;;52.75;25.17;;;;;;;;;;5022210;28;20029;-77
2022/11/01 08:59:13;;;;;;;49.72;24.20;;;;;;;;;;5040944;28;20060;-77
2022/11/01 09:01:39;;;;;;;57.00;31.88;;;;;;;;;;5038144;28;20029;-78
2022/11/01 09:04:05;;;;;;;38.97;19.30;;;;;;;;;;5036741;28;20029;-77
2022/11/01 09:06:31;;;;;;;35.17;16.63;;;;;;;;;;5036335;28;20029;-76
2022/11/01 09:08:57;;;;;;;29.27;12.80;;;;;;;;;;5037751;28;20356;-76
2022/11/01 09:11:24;;;;;;;32.08;11.98;;;;;;;;;;5037967;28;20029;-77
2022/11/01 09:13:51;;;;;;;27.70;10.05;;;;;;;;;;5037203;28;20045;-77
2022/11/01 09:16:17;;;;;;;21.70;9.30;;;;;;;;;;5022769;28;20397;-76
2022/11/01 09:18:43;;;;;;;25.27;8.88;;;;;;;;;;5039214;28;20029;-77
2022/11/01 09:21:10;;;;;;;22.20;8.68;;;;;;;;;;5037416;28;20112;-76
2022/11/01 09:23:36;;;;;;;18.67;7.88;;;;;;;;;;5020766;28;20029;-76
2022/11/01 09:26:12;;;;;;;17.40;7.45;;;;;;;;;;5020325;28;20026;-76
2022/11/01 09:28:37;;;;;;;19.52;7.28;;;;;;;;;;5019067;28;20025;-76
2022/11/01 09:31:08;;;;;;;23.98;7.60;;;;;;;;;;5036394;28;20101;-77
2022/11/01 09:33:35;;;;;;;20.15;7.22;;;;;;;;;;5037496;28;20028;-77
2022/11/01 09:36:01;;;;;;;17.70;7.35;;;;;;;;;;5037692;28;20065;-78
2022/11/01 09:38:27;;;;;;;18.65;7.70;;;;;;;;;;5045117;28;20034;-76
2022/11/01 09:40:58;;;;;;;17.27;6.30;;;;;;;;;;5047869;28;20152;-77
2022/11/01 09:43:25;;;;;;;24.95;6.93;;;;;;;;;;5050177;28;20470;-78
2022/11/01 09:45:53;;;;;;;17.60;6.40;;;;;;;;;;5034754;28;20029;-75
2022/11/01 09:48:19;;;;;;;16.10;6.47;;;;;;;;;;5054922;28;20056;-76
2022/11/01 09:50:46;;;;;;;18.20;6.88;;;;;;;;;;5041125;28;20032;-78
2022/11/01 09:53:16;;;;;;;19.30;6.70;;;;;;;;;;5034734;28;20017;-77
2022/11/01 09:55:56;;;;;;;28.33;6.95;;;;;;;;;;5035138;28;20040;-77
2022/11/01 09:58:22;;;;;;;16.23;6.35;;;;;;;;;;5036389;28;20030;-76
2022/11/01 10:00:54;;;;;;;19.65;6.82;;;;;;;;;;5035871;28;20428;-77
2022/11/01 10:03:43;;;;;;;16.95;6.90;;;;;;;;;;5035399;28;20486;-78
2022/11/01 10:06:15;;;;;;;18.95;6.57;;;;;;;;;;5035526;28;20029;-76
2022/11/01 10:09:00;;;;;;;29.05;7.13;;;;;;;;;;5035752;28;20037;-76
2022/11/01 10:11:36;;;;;;;19.60;7.20;;;;;;;;;;5036910;28;20025;-77
2022/11/01 10:14:05;;;;;;;19.55;7.00;;;;;;;;;;5036267;28;20069;-77
2022/11/01 10:16:31;;;;;;;23.35;7.20;;;;;;;;;;5036453;28;20026;-78
2022/11/01 10:19:03;;;;;;;19.80;7.40;;;;;;;;;;5036731;28;20032;-77
2022/11/01 10:21:32;;;;;;;21.25;7.90;;;;;;;;;;5037381;28;20033;-77
2022/11/01 10:24:00;;;;;;;17.73;7.00;;;;;;;;;;5018676;28;20457;-77
2022/11/01 10:26:30;;;;;;;20.92;7.95;;;;;;;;;;5035828;28;20034;-77
2022/11/01 10:28:59;;;;;;;17.85;6.95;;;;;;;;;;5020322;28;20033;-78
2022/11/01 10:31:26;;;;;;;19.60;6.35;;;;;;;;;;5037968;28;20022;-76
2022/11/01 10:34:03;;;;;;;20.15;6.53;;;;;;;;;;5042942;28;20021;-78
2022/11/01 10:36:33;;;;;;;16.05;5.65;;;;;;;;;;5041828;28;20022;-77
2022/11/01 10:39:06;;;;;;;15.40;5.13;;;;;;;;;;5028569;28;20047;-78
2022/11/01 10:41:41;;;;;;;15.80;4.80;;;;;;;;;;5033800;28;20025;-76
2022/11/01 10:44:12;;;;;;;19.42;4.50;;;;;;;;;;5050194;28;20021;-76
2022/11/01 10:46:40;;;;;;;15.18;4.68;;;;;;;;;;5044215;28;20040;-77
2022/11/01 10:49:11;;;;;;;15.23;4.35;;;;;;;;;;5048897;28;20022;-76
2022/11/01 10:51:40;;;;;;;18.92;4.10;;;;;;;;;;5037088;28;20033;-78
2022/11/01 10:54:10;;;;;;;13.27;5.03;;;;;;;;;;5036684;28;20045;-77
2022/11/01 10:56:43;;;;;;;10.45;3.65;;;;;;;;;;5039465;28;20029;-78
2022/11/01 10:59:18;;;;;;;15.35;4.70;;;;;;;;;;5035014;28;20026;-77
2022/11/01 11:01:45;;;;;;;12.40;3.90;;;;;;;;;;5035664;28;20033;-78
2022/11/01 11:04:14;;;;;;;15.38;3.58;;;;;;;;;;5036812;28;20037;-76
2022/11/01 11:06:41;;;;;;;12.43;3.40;;;;;;;;;;5035535;28;20180;-77
2022/11/01 11:09:17;;;;;;;8.63;3.20;;;;;;;;;;5035860;28;20029;-77
2022/11/01 11:11:44;;;;;;;12.43;3.60;;;;;;;;;;5036616;28;20116;-78
2022/11/01 11:14:10;;;;;;;11.00;2.88;;;;;;;;;;5037470;28;20030;-77
2022/11/01 11:16:54;;;;;;;13.07;2.85;;;;;;;;;;5022373;28;20029;-76
2022/11/01 11:19:23;;;;;;;18.85;3.03;;;;;;;;;;5040002;28;20398;-78
2022/11/01 11:21:50;;;;;;;9.40;1.88;;;;;;;;;;5039766;28;20024;-76
2022/11/01 11:24:18;;;;;;;9.65;2.28;;;;;;;;;;5038403;28;20029;-76
2022/11/01 11:26:45;;;;;;;15.90;2.53;;;;;;;;;;5022948;28;20089;-77
2022/11/01 11:29:17;;;;;;;11.20;2.13;;;;;;;;;;5041404;28;20032;-77
2022/11/01 11:31:43;;;;;;;13.27;2.08;;;;;;;;;;5040307;28;20013;-78
2022/11/01 11:34:29;;;;;;;12.70;2.42;;;;;;;;;;5041285;28;20478;-77
2022/11/01 11:36:56;;;;;;;11.75;2.63;;;;;;;;;;5025017;28;20072;-78
2022/11/01 11:39:37;;;;;;;10.35;1.98;;;;;;;;;;5024781;28;20544;-77
2022/11/01 11:42:11;;;;;;;16.48;2.00;;;;;;;;;;5052887;28;20037;-78
2022/11/01 11:44:39;;;;;;;7.87;2.13;;;;;;;;;;5040949;28;20037;-76
2022/11/01 11:47:05;;;;;;;9.25;1.80;;;;;;;;;;5041677;28;20030;-76
2022/11/01 11:49:31;;;;;;;14.90;2.85;;;;;;;;;;5059778;28;20033;-77
2022/11/01 11:51:57;;;;;;;11.63;2.38;;;;;;;;;;5056168;28;20030;-78
2022/11/01 11:54:33;;;;;;;11.73;2.17;;;;;;;;;;5022856;28;20093;-77
2022/11/01 11:57:10;;;;;;;12.52;2.97;;;;;;;;;;5039594;28;20049;-79
2022/11/01 11:59:36;;;;;;;10.95;2.15;;;;;;;;;;5022476;28;20111;-78
2022/11/01 12:02:04;;;;;;;10.93;2.67;;;;;;;;;;5042864;28;20025;-79
2022/11/01 12:04:41;;;;;;;13.45;3.03;;;;;;;;;;5042327;28;20084;-78
2022/11/01 12:07:20;;;;;;;10.18;2.45;;;;;;;;;;5045515;28;20085;-78
2022/11/01 12:09:47;;;;;;;13.95;2.33;;;;;;;;;;5048918;28;20069;-79
2022/11/01 12:12:23;;;;;;;14.30;2.65;;;;;;;;;;5046863;28;20097;-80
2022/11/01 12:14:49;;;;;;;15.27;2.88;;;;;;;;;;5022506;28;20033;-78
2022/11/01 12:17:28;;;;;;;13.30;2.90;;;;;;;;;;5021761;28;20061;-77
2022/11/01 12:20:09;;;;;;;12.05;2.67;;;;;;;;;;5040018;28;20030;-78
2022/11/01 12:22:36;;;;;;;13.30;2.97;;;;;;;;;;5021283;28;20025;-78
2022/11/01 12:25:07;;;;;;;16.55;2.97;;;;;;;;;;5039115;28;20163;-77
2022/11/01 12:27:36;;;;;;;14.43;2.80;;;;;;;;;;5039181;28;20077;-79
2022/11/01 12:30:07;;;;;;;13.80;2.88;;;;;;;;;;5044067;28;20017;-78
2022/11/01 12:32:52;;;;;;;13.38;2.72;;;;;;;;;;5058267;28;20061;-79
2022/11/01 12:35:21;;;;;;;19.88;2.90;;;;;;;;;;5055653;28;20029;-77
2022/11/01 12:37:53;;;;;;;14.60;2.63;;;;;;;;;;5033099;28;20025;-77
2022/11/01 12:40:35;;;;;;;16.95;3.33;;;;;;;;;;5052164;28;20017;-77
2022/11/01 12:43:20;;;;;;;15.98;3.00;;;;;;;;;;5035486;28;20021;-77
2022/11/01 12:45:46;;;;;;;16.90;3.03;;;;;;;;;;5053442;28;20034;-81
2022/11/01 12:48:15;;;;;;;17.60;3.85;;;;;;;;;;5052709;28;20028;-76
2022/11/01 12:50:48;;;;;;;12.48;2.75;;;;;;;;;;5035197;28;20075;-77
2022/11/01 12:53:18;;;;;;;15.18;2.88;;;;;;;;;;5029302;28;20022;-77
2022/11/01 12:55:45;;;;;;;17.02;3.10;;;;;;;;;;5023230;28;20036;-77
2022/11/01 12:58:13;;;;;;;20.63;3.28;;;;;;;;;;5032023;28;20053;-77
2022/11/01 13:00:40;;;;;;;25.60;3.90;;;;;;;;;;5037955;28;20033;-78
2022/11/01 13:03:15;;;;;;;13.07;2.97;;;;;;;;;;5034326;28;20303;-77
2022/11/01 13:05:44;;;;;;;24.83;4.05;;;;;;;;;;5052700;28;20033;-78
2022/11/01 13:08:20;;;;;;;18.58;3.92;;;;;;;;;;5045285;28;20025;-77
2022/11/01 13:10:47;;;;;;;22.55;3.60;;;;;;;;;;5044470;28;20105;-78
2022/11/01 13:13:31;;;;;;;13.50;3.05;;;;;;;;;;5037703;28;20025;-79
2022/11/01 13:15:57;;;;;;;;;;;;;;;;;;5018854;28;20070;-77
2022/11/01 13:18:34;;;;;;;20.25;3.88;;;;;;;;;;5018739;28;20281;-78
2022/11/01 13:21:00;;;;;;;19.73;3.10;;;;;;;;;;5058581;22;20049;-73
2022/11/01 13:23:37;;;;;;;12.98;3.47;;;;;;;;;;5034789;28;20097;-73
2022/11/01 13:26:26;;;;;;;16.13;3.10;;;;;;;;;;5034308;28;20028;-75
2022/11/01 13:28:55;;;;;;;19.98;2.97;;;;;;;;;;5029380;28;20148;-73
2022/11/01 13:31:21;;;;;;;16.38;3.25;;;;;;;;;;5035336;28;20033;-74
2022/11/01 13:34:01;;;;;;;15.55;3.28;;;;;;;;;;5041800;28;20036;-74
2022/11/01 13:36:36;;;;;;;17.00;3.10;;;;;;;;;;5036752;28;20029;-73
2022/11/01 13:39:01;;;;;;;21.65;3.47;;;;;;;;;;5034229;28;20033;-73
2022/11/01 13:41:32;;;;;;;20.55;3.50;;;;;;;;;;5034472;28;20378;-73
2022/11/01 13:44:03;;;;;;;24.60;3.75;;;;;;;;;;5035880;28;20029;-73
2022/11/01 13:46:40;;;;;;;17.45;3.10;;;;;;;;;;5037892;28;20030;-74
2022/11/01 13:49:18;;;;;;;17.80;3.40;;;;;;;;;;5039213;28;20100;-74
2022/11/01 13:51:56;;;;;;;18.38;3.42;;;;;;;;;;5042820;28;20108;-74
2022/11/01 13:54:29;;;;;;;21.95;3.25;;;;;;;;;;5043365;28;20041;-74
2022/11/01 13:57:00;;;;;;;15.20;3.45;;;;;;;;;;5042898;28;20029;-73
2022/11/01 13:59:43;;;;;;;13.07;2.80;;;;;;;;;;5043573;28;20038;-73
2022/11/01 14:02:24;;;;;;;14.10;3.05;;;;;;;;;;5035970;28;20033;-73
2022/11/01 14:05:01;;;;;;;18.25;3.25;;;;;;;;;;5037858;28;20036;-73
2022/11/01 14:07:35;;;;;;;17.85;3.28;;;;;;;;;;5035777;28;20061;-76
2022/11/01 14:10:09;;;;;;;17.58;3.47;;;;;;;;;;5033140;28;20021;-73
2022/11/01 14:12:39;;;;;;;13.98;2.55;;;;;;;;;;5035279;28;20377;-74
2022/11/01 14:15:16;;;;;;;15.50;3.03;;;;;;;;;;5033246;28;20062;-73
2022/11/01 14:18:02;;;;;;;14.27;2.70;;;;;;;;;;5034743;28;20033;-73
2022/11/01 14:20:28;;;;;;;15.38;3.65;;;;;;;;;;5035368;28;20030;-74
2022/11/01 14:22:55;;;;;;;14.45;2.83;;;;;;;;;;5033346;28;20032;-74
2022/11/01 14:25:29;;;;;;;11.85;2.88;;;;;;;;;;5034178;28;20029;-74
2022/11/01 14:28:13;;;;;;;14.80;3.20;;;;;;;;;;5033980;28;20021;-74
2022/11/01 14:30:42;;;;;;;17.85;2.90;;;;;;;;;;5033902;28;20475;-75
2022/11/01 14:33:11;;;;;;;16.15;3.47;;;;;;;;;;5034007;28;20040;-73
2022/11/01 14:35:37;;;;;;;23.27;2.90;;;;;;;;;;5033435;28;20025;-74
2022/11/01 14:38:06;;;;;;;17.58;3.17;;;;;;;;;;5033631;28;20028;-73